Strona główna
METAR-TAF:

METAR-TAF

Lotnisko :

Port lotniczy Ngaoundéré

Ngaoundéré, Kamerun

Szerokość geograficzna: 07-21N, Długość geograficzna: 013-34E, wysokość: 1114 m

Aktualna obserwacja pogody

Raport powstał 1 godzina i 50 minut temu, godzina 12:00 UTC
Wiatr 8 kt od południowo-południowy zachód
Temperatura 28°C
Wilgotność 70%
Ciśnienie 1017 hPa
Widzialność 10 km lub więcej
Rozproszone chmury na wysokości 1700 ft

METAR: FKKN 211200Z 20008KT 9999 SCT017 28/22 Q1017

czas: 14:50 (13:50 UTC)


TAF: brakujący

Obserwacja i prognoza pogody dla ponad 4000 lotnisk (raport METAR i TAF).

Dostępne stacje oznaczono żółtymi i czerwonymi punktami na mapie.

Najedź kursorem aby zobaczyć nazwę stacji.

Kliknij aby zobaczyć obserwacje i prognozy pogody.

Aby zmienić mapę: kliknij na zielony przycisk z czarnym krzyżykiem, aby powiększyć; na zielony przycisk z myślnikiem, aby pomniejszyć; na zielone strzałki, aby przejść do map sąsiednich.


METAR-TAF: